createdAt,value
2022-09-20T00:00:15.211Z,9.19
2022-09-20T00:03:18.969Z,9.18
2022-09-20T00:06:23.701Z,9.09
2022-09-20T00:09:26.159Z,8.98
2022-09-20T00:12:43.402Z,9.08
2022-09-20T00:15:46.190Z,9.16
2022-09-20T00:18:59.340Z,9.17
2022-09-20T00:22:19.934Z,9.20
2022-09-20T00:25:32.143Z,9.23
2022-09-20T00:28:35.488Z,9.24
2022-09-20T00:31:53.302Z,9.27
2022-09-20T00:35:22.110Z,9.35
2022-09-20T00:38:25.028Z,9.38
2022-09-20T00:41:30.168Z,9.36
2022-09-20T00:44:51.392Z,9.34
2022-09-20T00:48:01.002Z,9.42
2022-09-20T00:51:36.417Z,9.52
2022-09-20T00:54:39.128Z,9.49
2022-09-20T00:57:42.890Z,9.40
2022-09-20T01:01:01.848Z,9.38
2022-09-20T01:04:05.065Z,9.32
2022-09-20T01:07:14.200Z,9.29
2022-09-20T01:10:33.771Z,9.26
2022-09-20T01:13:35.817Z,9.17
2022-09-20T01:16:42.234Z,9.18
2022-09-20T01:19:58.216Z,9.20
2022-09-20T01:23:19.072Z,9.26
2022-09-20T01:26:54.083Z,9.39
2022-09-20T01:30:16.864Z,9.39
2022-09-20T01:33:33.946Z,9.40
2022-09-20T01:36:51.153Z,9.42
2022-09-20T01:40:48.217Z,9.42
2022-09-20T01:43:59.701Z,9.38
2022-09-20T01:47:30.768Z,9.30
2022-09-20T01:50:55.579Z,9.26
2022-09-20T01:54:45.081Z,9.34
2022-09-20T02:01:45.935Z,9.36
2022-09-20T02:05:07.654Z,9.22
2022-09-20T02:08:26.416Z,9.22
2022-09-20T02:11:54.269Z,9.23
2022-09-20T02:15:05.057Z,9.29
2022-09-20T02:18:32.318Z,9.41
2022-09-20T02:22:19.914Z,9.46
2022-09-20T02:25:50.882Z,9.21
2022-09-20T02:29:07.287Z,9.20
2022-09-20T02:32:30.050Z,9.15
2022-09-20T02:35:48.920Z,9.17
2022-09-20T02:39:13.695Z,9.23
2022-09-20T02:46:11.327Z,9.21
2022-09-20T02:49:40.849Z,9.24
2022-09-20T02:53:08.757Z,9.26
2022-09-20T02:56:31.983Z,9.32
2022-09-20T03:03:19.810Z,9.26
2022-09-20T03:06:30.624Z,9.26
2022-09-20T03:09:56.342Z,9.21
2022-09-20T03:17:05.372Z,9.18
2022-09-20T03:20:24.760Z,9.15
2022-09-20T03:23:46.258Z,9.14
2022-09-20T03:27:07.192Z,9.16
2022-09-20T03:30:32.875Z,9.15
2022-09-20T03:34:09.485Z,9.16
2022-09-20T03:37:40.202Z,9.20
2022-09-20T03:41:18.654Z,9.21
2022-09-20T03:44:26.137Z,9.25
2022-09-20T03:47:54.362Z,9.27
2022-09-20T03:51:05.737Z,9.25
2022-09-20T03:54:24.565Z,9.21
2022-09-20T03:57:34.911Z,9.23
2022-09-20T04:00:57.023Z,9.28
2022-09-20T04:04:10.719Z,9.25
2022-09-20T04:07:38.923Z,9.24
2022-09-20T04:11:18.615Z,9.25
2022-09-20T04:14:33.449Z,9.29
2022-09-20T04:18:01.936Z,9.25
2022-09-20T04:21:30.934Z,9.25
2022-09-20T04:24:49.074Z,9.26
2022-09-20T04:27:55.734Z,9.27
2022-09-20T04:31:07.234Z,9.21
2022-09-20T04:34:57.956Z,9.13
2022-09-20T04:38:07.603Z,9.19
2022-09-20T04:41:13.051Z,9.17
2022-09-20T04:44:35.910Z,9.08
2022-09-20T04:47:56.956Z,9.09
2022-09-20T04:51:26.753Z,9.04
2022-09-20T04:54:54.530Z,9.08
2022-09-20T04:58:06.311Z,9.12
2022-09-20T05:01:15.609Z,9.08
2022-09-20T05:04:40.964Z,9.08
2022-09-20T05:07:51.628Z,9.13
2022-09-20T05:10:54.124Z,9.21
2022-09-20T05:14:19.592Z,9.39
2022-09-20T05:17:37.458Z,9.43
2022-09-20T05:20:50.562Z,9.43
2022-09-20T05:24:18.380Z,9.51
2022-09-20T05:27:29.362Z,9.57
2022-09-20T05:30:42.981Z,9.64
2022-09-20T05:34:00.271Z,9.69
2022-09-20T05:37:24.105Z,9.85
2022-09-20T05:40:30.602Z,9.91
2022-09-20T05:44:04.337Z,10.11
2022-09-20T05:47:16.963Z,10.23
2022-09-20T05:50:38.149Z,10.35
2022-09-20T05:53:53.425Z,10.24
2022-09-20T05:57:12.815Z,10.17
2022-09-20T06:00:30.681Z,10.45
2022-09-20T06:03:42.028Z,10.62
2022-09-20T06:06:56.087Z,10.85
2022-09-20T06:10:22.570Z,11.46
2022-09-20T06:13:32.479Z,11.44
2022-09-20T06:16:51.737Z,11.45
2022-09-20T06:20:03.443Z,11.19
2022-09-20T06:23:13.276Z,11.02
2022-09-20T06:26:29.986Z,11.06
2022-09-20T06:29:34.963Z,11.81
2022-09-20T06:32:53.877Z,11.92
2022-09-20T06:36:25.214Z,12.55
2022-09-20T06:40:01.090Z,16.22
2022-09-20T06:43:12.199Z,19.50
2022-09-20T06:46:23.790Z,20.80
2022-09-20T06:49:32.901Z,20.65
2022-09-20T06:52:41.671Z,22.36
2022-09-20T06:55:46.649Z,22.19
2022-09-20T06:58:53.823Z,23.78
2022-09-20T07:02:04.466Z,23.40
2022-09-20T07:05:20.837Z,20.92
2022-09-20T07:08:31.955Z,17.80
2022-09-20T07:11:45.900Z,15.95
2022-09-20T07:14:53.944Z,13.72
2022-09-20T07:17:57.266Z,14.50
2022-09-20T07:21:02.391Z,17.23
2022-09-20T07:24:06.734Z,15.42
2022-09-20T07:27:12.030Z,13.98
2022-09-20T07:30:15.506Z,13.44
2022-09-20T07:33:32.598Z,13.29
2022-09-20T07:36:36.124Z,12.97
2022-09-20T07:39:39.630Z,12.72
2022-09-20T07:42:56.136Z,12.67
2022-09-20T07:46:00.593Z,13.11
2022-09-20T07:49:08.308Z,13.37
2022-09-20T07:52:13.147Z,13.34
2022-09-20T07:55:15.960Z,13.20
2022-09-20T07:58:20.936Z,13.52
2022-09-20T08:01:23.867Z,13.34
2022-09-20T08:04:29.766Z,12.85
2022-09-20T08:07:33.201Z,13.10
2022-09-20T08:10:37.577Z,13.27
2022-09-20T08:14:09.465Z,13.47
2022-09-20T08:17:14.306Z,14.02
2022-09-20T08:20:19.012Z,14.27
2022-09-20T08:23:24.331Z,14.23
2022-09-20T08:26:42.591Z,13.61
2022-09-20T08:29:46.309Z,13.48
2022-09-20T08:32:50.117Z,14.17
2022-09-20T08:35:57.669Z,14.05
2022-09-20T08:42:43.756Z,14.01
2022-09-20T08:45:48.190Z,13.83
2022-09-20T08:48:57.543Z,13.90
2022-09-20T08:52:04.343Z,13.89
2022-09-20T08:55:21.841Z,13.76
2022-09-20T08:58:26.058Z,13.87
2022-09-20T09:01:34.269Z,13.62
2022-09-20T09:04:39.028Z,13.56
2022-09-20T09:07:42.295Z,13.43
2022-09-20T09:10:57.567Z,13.38
2022-09-20T09:14:31.463Z,13.44
2022-09-20T09:17:38.658Z,13.53
2022-09-20T09:20:51.284Z,13.59
2022-09-20T09:24:04.989Z,13.68
2022-09-20T09:27:18.661Z,13.42
2022-09-20T09:30:23.225Z,13.55
2022-09-20T09:33:35.094Z,13.48
2022-09-20T09:36:45.411Z,13.63
2022-09-20T09:40:05.886Z,14.02
2022-09-20T10:02:23.555Z,14.03
2022-09-20T10:05:33.450Z,14.11
2022-09-20T10:08:40.440Z,14.51
2022-09-20T10:11:49.756Z,14.60
2022-09-20T10:15:20.534Z,14.29
2022-09-20T10:18:32.476Z,14.28
2022-09-20T10:21:39.256Z,14.41
2022-09-20T10:24:42.308Z,14.12
2022-09-20T10:28:09.261Z,14.23
2022-09-20T10:31:32.535Z,14.42
2022-09-20T10:34:49.367Z,14.43
2022-09-20T10:38:02.061Z,14.71
2022-09-20T10:41:34.097Z,15.43
2022-09-20T10:45:02.637Z,15.82
2022-09-20T10:48:09.673Z,15.81
2022-09-20T10:51:31.658Z,15.63
2022-09-20T10:54:49.408Z,15.39
2022-09-20T10:58:07.223Z,15.47
2022-09-20T11:01:18.621Z,15.40
2022-09-20T11:04:36.162Z,14.98
2022-09-20T11:07:52.137Z,14.87
2022-09-20T11:11:13.182Z,14.88
2022-09-20T11:14:19.875Z,15.47
2022-09-20T11:17:22.591Z,15.59
2022-09-20T11:20:33.694Z,16.13
2022-09-20T11:23:37.894Z,16.52
2022-09-20T11:26:41.210Z,16.78
2022-09-20T13:22:19.213Z,15.58
2022-09-20T13:25:24.555Z,15.42
2022-09-20T13:28:30.908Z,15.47
2022-09-20T13:31:34.977Z,15.49
2022-09-20T13:34:39.863Z,15.60
2022-09-20T13:37:47.903Z,15.61
2022-09-20T13:41:04.199Z,15.61
2022-09-20T13:44:17.838Z,15.26
2022-09-20T13:50:54.417Z,15.46
2022-09-20T13:54:29.047Z,15.59
2022-09-20T13:57:37.571Z,15.43
2022-09-20T14:00:45.891Z,15.68
2022-09-20T14:03:57.588Z,16.08
2022-09-20T14:07:03.960Z,16.22
2022-09-20T14:10:27.240Z,16.49
2022-09-20T14:13:34.388Z,16.65
2022-09-20T14:16:40.844Z,16.16
2022-09-20T14:19:53.593Z,15.89
2022-09-20T14:22:59.208Z,15.49
2022-09-20T14:26:20.856Z,15.20
2022-09-20T14:29:37.697Z,14.67
2022-09-20T14:33:02.621Z,14.49
2022-09-20T14:36:05.855Z,14.50
2022-09-20T14:39:14.640Z,14.63
2022-09-20T14:42:27.408Z,14.72
2022-09-20T14:45:32.809Z,14.77
2022-09-20T14:48:43.353Z,14.88
2022-09-20T14:51:49.419Z,14.87
2022-09-20T14:55:06.354Z,14.60
2022-09-20T14:58:15.586Z,14.69
2022-09-20T15:01:28.950Z,14.77
2022-09-20T15:04:34.356Z,14.86
2022-09-20T15:07:38.273Z,14.82
2022-09-20T15:10:43.313Z,14.76
2022-09-20T15:13:49.764Z,14.62
2022-09-20T15:16:53.700Z,14.62
2022-09-20T15:19:57.820Z,14.45
2022-09-20T15:23:00.792Z,14.38
2022-09-20T15:26:03.903Z,14.20
2022-09-20T15:29:08.248Z,13.88
2022-09-20T15:32:12.447Z,13.72
2022-09-20T15:35:15.016Z,13.40
2022-09-20T15:38:23.845Z,13.16
2022-09-20T15:41:30.507Z,12.87
2022-09-20T15:44:36.175Z,12.85
2022-09-20T15:47:45.323Z,12.81
2022-09-20T15:51:13.923Z,12.62
2022-09-20T15:54:21.103Z,12.52
2022-09-20T15:57:23.979Z,12.40
2022-09-20T16:00:30.246Z,12.38
2022-09-20T16:03:33.311Z,12.37
2022-09-20T16:06:36.071Z,12.26
2022-09-20T16:09:39.423Z,12.13
2022-09-20T16:12:43.032Z,11.61
2022-09-20T16:15:59.949Z,11.36
2022-09-20T16:19:20.642Z,11.17
2022-09-20T16:22:29.897Z,11.05
2022-09-20T16:25:52.899Z,10.91
2022-09-20T16:29:08.996Z,10.84
2022-09-20T16:32:17.582Z,10.77
2022-09-20T16:35:32.133Z,10.79
2022-09-20T16:38:50.325Z,10.72
2022-09-20T17:13:58.343Z,10.11
2022-09-20T17:17:09.113Z,10.20
2022-09-20T17:20:11.966Z,10.27
2022-09-20T17:23:15.415Z,10.29
2022-09-20T17:26:20.889Z,10.30
2022-09-20T17:29:23.914Z,10.32
2022-09-20T17:32:26.698Z,10.26
2022-09-20T17:35:30.098Z,10.23
2022-09-20T17:38:34.432Z,10.22
2022-09-20T17:41:37.838Z,10.21
2022-09-20T17:44:42.655Z,10.18
2022-09-20T17:47:47.621Z,10.15
2022-09-20T17:51:12.504Z,10.18
2022-09-20T17:54:16.682Z,10.19
2022-09-20T17:57:19.397Z,10.22
2022-09-20T18:00:24.390Z,10.18
2022-09-20T18:03:27.699Z,10.18
2022-09-20T18:06:32.879Z,10.20
2022-09-20T18:09:35.460Z,10.23
2022-09-20T18:12:45.318Z,10.21
2022-09-20T18:15:48.900Z,10.22
2022-09-20T18:18:56.768Z,10.11
2022-09-20T18:22:00.204Z,10.08
2022-09-20T18:25:05.774Z,10.03
2022-09-20T18:28:10.715Z,9.99
2022-09-20T18:31:18.753Z,9.99
2022-09-20T18:34:25.910Z,10.02
2022-09-20T18:37:28.943Z,10.01
2022-09-20T18:40:34.715Z,9.97
2022-09-20T18:43:38.427Z,10.01
2022-09-20T18:46:47.950Z,9.93
2022-09-20T18:50:00.989Z,9.95
2022-09-20T18:53:07.634Z,9.90
2022-09-20T18:56:32.540Z,9.88
2022-09-20T18:59:38.225Z,9.87
2022-09-20T19:03:00.870Z,9.86
2022-09-20T19:06:11.494Z,9.81
2022-09-20T19:09:42.097Z,9.88
2022-09-20T19:12:57.205Z,9.86
2022-09-20T19:16:23.503Z,9.86
2022-09-20T19:19:49.346Z,9.94
2022-09-20T19:23:06.797Z,9.79
2022-09-20T19:26:33.165Z,9.77
2022-09-20T19:29:42.897Z,9.72
2022-09-20T19:32:45.598Z,9.75
2022-09-20T19:35:57.367Z,9.76
2022-09-20T19:39:09.993Z,9.78
2022-09-20T19:42:35.755Z,9.84
2022-09-20T19:45:49.246Z,9.83
2022-09-20T19:49:14.972Z,9.85
2022-09-20T19:52:20.824Z,9.88
2022-09-20T19:55:24.332Z,9.84
2022-09-20T19:58:29.692Z,9.86
2022-09-20T20:01:33.492Z,9.81
2022-09-20T20:04:36.569Z,9.79
2022-09-20T20:07:50.221Z,9.76
2022-09-20T20:11:15.165Z,9.74
2022-09-20T20:14:33.618Z,9.70
2022-09-20T20:17:47.597Z,9.67
2022-09-20T20:20:53.361Z,9.70
2022-09-20T20:23:57.093Z,9.66
2022-09-20T20:27:09.806Z,9.68
2022-09-20T20:30:18.333Z,9.70
2022-09-20T20:33:24.550Z,9.63
2022-09-20T20:36:33.428Z,9.64
2022-09-20T20:39:40.136Z,9.64
2022-09-20T20:42:44.010Z,9.62
2022-09-20T20:45:57.989Z,9.53
2022-09-20T20:49:00.339Z,9.47
2022-09-20T20:52:16.679Z,9.43
2022-09-20T20:55:20.069Z,9.35
2022-09-20T20:58:23.797Z,9.37
2022-09-20T21:01:33.615Z,9.27
2022-09-20T21:04:40.290Z,9.25
2022-09-20T21:07:42.645Z,9.21
2022-09-20T21:10:47.800Z,9.23
2022-09-20T21:13:53.362Z,9.17
2022-09-20T21:16:57.048Z,9.14
2022-09-20T21:20:05.174Z,9.06
2022-09-20T21:23:10.105Z,9.11
2022-09-20T21:26:15.664Z,9.03
2022-09-20T21:29:18.495Z,9.03
2022-09-20T21:32:27.139Z,9.02
2022-09-20T21:35:35.213Z,9.02
2022-09-20T21:38:43.498Z,8.94
2022-09-20T21:41:47.940Z,8.93
2022-09-20T21:44:55.124Z,8.97
2022-09-20T21:48:05.768Z,8.97
2022-09-20T21:51:13.289Z,8.98
2022-09-20T21:54:21.076Z,9.01
2022-09-20T21:57:26.207Z,8.96
2022-09-20T22:00:28.386Z,8.94
2022-09-20T22:03:34.307Z,8.98
2022-09-20T22:06:38.367Z,8.94
2022-09-20T22:09:41.150Z,8.97
2022-09-20T22:12:44.244Z,8.93
2022-09-20T22:15:48.610Z,8.93
2022-09-20T22:18:53.288Z,8.94
2022-09-20T22:21:55.723Z,8.94
2022-09-20T22:25:00.205Z,8.94
2022-09-20T22:28:02.499Z,8.96
2022-09-20T22:31:06.130Z,8.90
2022-09-20T22:34:09.167Z,8.80
2022-09-20T22:37:12.246Z,8.72
2022-09-20T22:40:17.959Z,8.75
2022-09-20T22:43:20.169Z,8.80
2022-09-20T22:46:33.630Z,8.79
2022-09-20T22:49:40.103Z,8.83
2022-09-20T22:52:46.060Z,8.80
2022-09-20T22:55:52.110Z,8.88
2022-09-20T22:58:56.755Z,8.89
2022-09-20T23:02:00.854Z,8.86
2022-09-20T23:05:03.065Z,8.87
2022-09-20T23:08:05.990Z,8.90
2022-09-20T23:11:10.801Z,8.85
2022-09-20T23:14:25.022Z,8.85
2022-09-20T23:17:30.885Z,8.70
2022-09-20T23:20:35.187Z,8.77
2022-09-20T23:23:46.590Z,8.71
2022-09-20T23:26:48.470Z,8.72
2022-09-20T23:29:57.182Z,8.74
2022-09-20T23:33:03.562Z,8.75
2022-09-20T23:36:13.300Z,8.70
2022-09-20T23:39:15.839Z,8.62
2022-09-20T23:42:18.548Z,8.56
2022-09-20T23:45:31.709Z,8.60
2022-09-20T23:48:36.372Z,8.64
2022-09-20T23:51:38.753Z,8.69
2022-09-20T23:54:42.376Z,8.67
2022-09-20T23:57:53.339Z,8.72
